Time,TemperatureF,DewpointF,PressureIn,WindDirection,WindDirectionDegrees,WindSpeedMPH,WindSpeedGustMPH,Humidity,HourlyPrecipIn,Conditions,Clouds,dailyrainin,SoftwareType,DateUTC
2013-02-06 00:01:00,18.0,16.0,-100.00,East,90,2.0,3.0,89,0.00,,,-99.99,,2013-02-06 06:01:00,
2013-02-06 00:11:00,18.0,16.0,-100.00,ENE,70,3.0,4.0,90,0.00,,,-99.99,,2013-02-06 06:11:00,
2013-02-06 00:21:00,17.0,15.0,-100.00,East,85,2.0,4.0,90,0.00,,,-99.99,,2013-02-06 06:21:00,
2013-02-06 00:32:00,17.0,15.0,-100.00,ENE,65,3.0,4.0,90,0.00,,,-99.99,,2013-02-06 06:32:00,
2013-02-06 00:42:00,17.0,15.0,-100.00,ENE,65,3.0,4.0,90,0.00,,,-99.99,,2013-02-06 06:42:00,
2013-02-06 00:51:00,18.0,15.0,-100.00,ESE,105,5.0,6.0,90,0.00,,,-99.99,,2013-02-06 06:51:00,
2013-02-06 01:01:00,18.0,15.0,-100.00,ESE,105,5.0,6.0,90,0.00,,,-99.99,,2013-02-06 07:01:00,
2013-02-06 01:11:00,17.0,15.0,-100.00,East,95,4.0,6.0,90,0.00,,,-99.99,,2013-02-06 07:11:00,
2013-02-06 01:21:00,17.0,15.0,-100.00,East,85,5.0,7.0,89,0.00,,,-99.99,,2013-02-06 07:21:00,
2013-02-06 01:32:00,17.0,14.0,-100.00,East,95,4.0,6.0,89,0.00,,,-99.99,,2013-02-06 07:32:00,
2013-02-06 01:41:00,17.0,14.0,-100.00,East,95,4.0,6.0,89,0.00,,,-99.99,,2013-02-06 07:41:00,
2013-02-06 01:51:00,17.0,14.0,-100.00,SE,130,7.0,7.0,89,0.00,,,-99.99,,2013-02-06 07:51:00,
2013-02-06 02:01:00,17.0,14.0,-100.00,SE,130,7.0,7.0,89,0.00,,,-99.99,,2013-02-06 08:01:00,
2013-02-06 02:11:00,16.0,14.0,-100.00,SE,145,6.0,8.0,89,0.00,,,-99.99,,2013-02-06 08:11:00,
2013-02-06 02:21:00,16.0,14.0,-100.00,ESE,105,6.0,8.0,89,0.00,,,-99.99,,2013-02-06 08:21:00,
2013-02-06 02:31:00,16.0,14.0,-100.00,SSE,160,7.0,10.0,89,0.00,,,-99.99,,2013-02-06 08:31:00,
2013-02-06 02:41:00,16.0,14.0,-100.00,SSE,160,7.0,10.0,89,0.00,,,-99.99,,2013-02-06 08:41:00,
2013-02-06 02:53:00,16.0,13.0,-100.00,SE,145,5.0,6.0,89,0.00,,,-99.99,,2013-02-06 08:53:00,
2013-02-06 03:01:00,16.0,13.0,-100.00,SE,145,5.0,6.0,89,0.00,,,-99.99,,2013-02-06 09:01:00,
2013-02-06 03:11:00,16.0,13.0,-100.00,SE,135,5.0,6.0,89,0.00,,,-99.99,,2013-02-06 09:11:00,
2013-02-06 03:21:00,17.0,14.0,-100.00,ESE,120,6.0,7.0,89,0.00,,,-99.99,,2013-02-06 09:21:00,
2013-02-06 03:31:00,17.0,15.0,-100.00,SE,130,7.0,9.0,89,0.00,,,-99.99,,2013-02-06 09:31:00,
2013-02-06 03:41:00,17.0,15.0,-100.00,SE,130,7.0,9.0,89,0.00,,,-99.99,,2013-02-06 09:41:00,
2013-02-06 03:51:00,18.0,15.0,-100.00,ESE,120,5.0,7.0,88,0.00,,,-99.99,,2013-02-06 09:51:00,
2013-02-06 04:01:00,18.0,15.0,-100.00,ESE,120,5.0,7.0,88,0.00,,,-99.99,,2013-02-06 10:01:00,
2013-02-06 04:11:00,18.0,15.0,-100.00,SE,125,6.0,8.0,88,0.00,,,-99.99,,2013-02-06 10:11:00,
2013-02-06 04:21:00,18.0,15.0,-100.00,SE,130,4.0,8.0,88,0.00,,,-99.99,,2013-02-06 10:21:00,
2013-02-06 04:31:00,19.0,16.0,-100.00,SE,140,9.0,11.0,88,0.00,,,-99.99,,2013-02-06 10:31:00,
2013-02-06 04:41:00,19.0,16.0,-100.00,SE,140,9.0,11.0,88,0.00,,,-99.99,,2013-02-06 10:41:00,
2013-02-06 04:51:00,19.0,17.0,-100.00,SE,130,7.0,9.0,88,0.00,,,-99.99,,2013-02-06 10:51:00,
2013-02-06 05:01:00,19.0,17.0,-100.00,SE,130,7.0,9.0,88,0.00,,,-99.99,,2013-02-06 11:01:00,
2013-02-06 05:11:00,20.0,17.0,-100.00,SE,135,7.0,11.0,87,0.00,,,-99.99,,2013-02-06 11:11:00,
2013-02-06 05:22:00,20.0,17.0,-100.00,ESE,105,6.0,9.0,87,0.00,,,-99.99,,2013-02-06 11:22:00,
2013-02-06 05:32:00,21.0,17.0,-100.00,SE,135,7.0,12.0,86,0.00,,,-99.99,,2013-02-06 11:32:00,
2013-02-06 05:42:00,21.0,17.0,-100.00,SE,135,7.0,12.0,86,0.00,,,-99.99,,2013-02-06 11:42:00,
2013-02-06 05:52:00,21.0,18.0,-100.00,ESE,110,6.0,12.0,85,0.00,,,-99.99,,2013-02-06 11:52:00,
2013-02-06 06:02:00,21.0,18.0,-100.00,ESE,110,6.0,12.0,85,0.00,,,-99.99,,2013-02-06 12:02:00,
2013-02-06 06:12:00,22.0,18.0,-100.00,SE,125,6.0,11.0,85,0.00,,,-99.99,,2013-02-06 12:12:00,
2013-02-06 06:22:00,22.0,18.0,-100.00,SE,125,6.0,11.0,85,0.00,,,-99.99,,2013-02-06 12:22:00,
2013-02-06 06:32:00,22.0,19.0,-100.00,SE,125,7.0,11.0,85,0.00,,,-99.99,,2013-02-06 12:32:00,
2013-02-06 06:42:00,22.0,19.0,-100.00,SE,125,7.0,11.0,85,0.00,,,-99.99,,2013-02-06 12:42:00,
2013-02-06 06:52:00,22.0,19.0,-100.00,ESE,105,6.0,11.0,85,0.00,,,-99.99,,2013-02-06 12:52:00,
2013-02-06 07:01:00,22.0,19.0,-100.00,ESE,105,6.0,11.0,85,0.00,,,-99.99,,2013-02-06 13:01:00,
2013-02-06 07:11:00,23.0,19.0,-100.00,SE,135,9.0,12.0,86,0.00,,,-99.99,,2013-02-06 13:11:00,
2013-02-06 07:22:00,23.0,20.0,-100.00,SE,130,10.0,14.0,87,0.00,,,-99.99,,2013-02-06 13:22:00,
2013-02-06 07:32:00,23.0,20.0,-100.00,SE,130,12.0,16.0,87,0.00,,,-99.99,,2013-02-06 13:32:00,
2013-02-06 07:42:00,23.0,20.0,-100.00,SE,130,12.0,16.0,87,0.00,,,-99.99,,2013-02-06 13:42:00,
2013-02-06 07:52:00,23.0,20.0,-100.00,SE,135,11.0,16.0,87,0.00,,,-99.99,,2013-02-06 13:52:00,
2013-02-06 08:01:00,23.0,20.0,-100.00,SE,135,11.0,16.0,87,0.00,,,-99.99,,2013-02-06 14:01:00,
2013-02-06 08:11:00,23.0,20.0,-100.00,ESE,115,7.0,15.0,87,0.00,,,-99.99,,2013-02-06 14:11:00,
2013-02-06 08:21:00,23.0,20.0,-100.00,SE,130,9.0,13.0,87,0.00,,,-99.99,,2013-02-06 14:21:00,
2013-02-06 08:32:00,24.0,21.0,-100.00,SE,130,12.0,17.0,87,0.00,,,-99.99,,2013-02-06 14:32:00,
2013-02-06 08:41:00,24.0,21.0,-100.00,SE,130,12.0,17.0,87,0.00,,,-99.99,,2013-02-06 14:41:00,
2013-02-06 08:52:00,25.0,22.0,-100.00,SE,130,12.0,18.0,87,0.00,,,-99.99,,2013-02-06 14:52:00,
2013-02-06 09:01:00,25.0,22.0,-100.00,SE,130,12.0,18.0,87,0.00,,,-99.99,,2013-02-06 15:01:00,
2013-02-06 09:11:00,26.0,23.0,-100.00,SE,130,12.0,16.0,87,0.00,,,-99.99,,2013-02-06 15:11:00,
2013-02-06 09:21:00,27.0,24.0,-100.00,SE,125,12.0,16.0,86,0.00,,,-99.99,,2013-02-06 15:21:00,
2013-02-06 09:31:00,29.0,25.0,-100.00,SE,140,16.0,21.0,85,0.00,,,-99.99,,2013-02-06 15:31:00,
2013-02-06 09:41:00,29.0,25.0,-100.00,SE,140,16.0,21.0,85,0.00,,,-99.99,,2013-02-06 15:41:00,
2013-02-06 09:51:00,31.0,26.0,-100.00,SE,145,13.0,18.0,83,0.00,,,-99.99,,2013-02-06 15:51:00,
2013-02-06 10:01:00,31.0,26.0,-100.00,SE,145,13.0,18.0,83,0.00,,,-99.99,,2013-02-06 16:01:00,
2013-02-06 10:11:00,31.0,27.0,-100.00,SE,145,16.0,20.0,83,0.00,,,-99.99,,2013-02-06 16:11:00,
2013-02-06 10:21:00,33.0,28.0,-100.00,SSE,150,16.0,19.0,81,0.00,,,-99.99,,2013-02-06 16:21:00,
2013-02-06 10:32:00,36.0,29.0,-100.00,SSE,150,21.0,28.0,75,0.00,,,-99.99,,2013-02-06 16:32:00,
2013-02-06 10:51:00,35.0,28.0,-100.00,SSE,150,21.0,28.0,73,0.00,,,-99.99,,2013-02-06 16:51:00,
2013-02-06 11:02:00,35.0,28.0,-100.00,SSE,150,21.0,28.0,73,0.00,,,-99.99,,2013-02-06 17:02:00,
2013-02-06 11:11:00,35.0,27.0,-100.00,SSE,155,20.0,24.0,74,0.00,,,-99.99,,2013-02-06 17:11:00,
2013-02-06 11:21:00,35.0,28.0,-100.00,SSE,160,21.0,28.0,74,0.00,,,-99.99,,2013-02-06 17:21:00,
2013-02-06 11:32:00,36.0,29.0,-100.00,SSE,155,22.0,29.0,74,0.00,,,-99.99,,2013-02-06 17:32:00,
2013-02-06 11:41:00,36.0,29.0,-100.00,SSE,155,22.0,29.0,74,0.00,,,-99.99,,2013-02-06 17:41:00,
2013-02-06 11:52:00,37.0,29.0,-100.00,SSE,160,21.0,26.0,72,0.00,,,-99.99,,2013-02-06 17:52:00,
2013-02-06 12:01:00,37.0,29.0,-100.00,SSE,160,21.0,26.0,72,0.00,,,-99.99,,2013-02-06 18:01:00,
2013-02-06 12:11:00,38.0,29.0,-100.00,SSE,165,17.0,26.0,72,0.00,,,-99.99,,2013-02-06 18:11:00,
2013-02-06 12:23:00,38.0,30.0,-100.00,SSE,160,18.0,27.0,72,0.00,,,-99.99,,2013-02-06 18:23:00,
2013-02-06 12:32:00,40.0,30.0,-100.00,SSE,165,21.0,24.0,69,0.00,,,-99.99,,2013-02-06 18:32:00,
2013-02-06 12:41:00,40.0,30.0,-100.00,SSE,165,21.0,24.0,69,0.00,,,-99.99,,2013-02-06 18:41:00,
2013-02-06 12:52:00,42.0,31.0,-100.00,South,180,17.0,26.0,65,0.00,,,-99.99,,2013-02-06 18:52:00,
2013-02-06 13:01:00,42.0,31.0,-100.00,South,180,17.0,26.0,65,0.00,,,-99.99,,2013-02-06 19:01:00,
2013-02-06 13:11:00,42.0,30.0,-100.00,South,180,18.0,24.0,61,0.00,,,-99.99,,2013-02-06 19:11:00,
2013-02-06 13:21:00,44.0,30.0,-100.00,South,175,19.0,25.0,57,0.00,,,-99.99,,2013-02-06 19:21:00,
2013-02-06 13:31:00,43.0,28.0,-100.00,South,185,18.0,26.0,55,0.00,,,-99.99,,2013-02-06 19:31:00,
2013-02-06 13:41:00,43.0,28.0,-100.00,South,185,18.0,26.0,55,0.00,,,-99.99,,2013-02-06 19:41:00,
2013-02-06 13:52:00,43.0,28.0,-100.00,South,175,16.0,23.0,56,0.00,,,-99.99,,2013-02-06 19:52:00,
2013-02-06 14:01:00,43.0,28.0,-100.00,South,175,16.0,23.0,56,0.00,,,-99.99,,2013-02-06 20:01:00,
2013-02-06 14:11:00,43.0,29.0,-100.00,South,190,15.0,26.0,56,0.00,,,-99.99,,2013-02-06 20:11:00,
2013-02-06 14:21:00,44.0,29.0,-100.00,SSW,200,16.0,24.0,55,0.00,,,-99.99,,2013-02-06 20:21:00,
2013-02-06 14:32:00,44.0,29.0,-100.00,SSW,195,15.0,22.0,55,0.00,,,-99.99,,2013-02-06 20:32:00,
2013-02-06 14:41:00,44.0,29.0,-100.00,SSW,195,15.0,22.0,55,0.00,,,-99.99,,2013-02-06 20:41:00,
2013-02-06 14:52:00,44.0,29.0,-100.00,South,190,17.0,22.0,54,0.00,,,-99.99,,2013-02-06 20:52:00,
2013-02-06 15:01:00,44.0,29.0,-100.00,South,190,17.0,22.0,54,0.00,,,-99.99,,2013-02-06 21:01:00,
2013-02-06 15:11:00,44.0,29.0,-100.00,SSW,200,16.0,21.0,55,0.00,,,-99.99,,2013-02-06 21:11:00,
2013-02-06 15:21:00,44.0,29.0,-100.00,SSW,195,12.0,18.0,55,0.00,,,-99.99,,2013-02-06 21:21:00,
2013-02-06 15:32:00,44.0,29.0,-100.00,South,185,12.0,15.0,56,0.00,,,-99.99,,2013-02-06 21:32:00,
2013-02-06 15:41:00,44.0,29.0,-100.00,South,185,12.0,15.0,56,0.00,,,-99.99,,2013-02-06 21:41:00,
2013-02-06 15:51:00,44.0,30.0,-100.00,South,185,14.0,17.0,57,0.00,,,-99.99,,2013-02-06 21:51:00,
2013-02-06 16:01:00,44.0,30.0,-100.00,South,185,14.0,17.0,57,0.00,,,-99.99,,2013-02-06 22:01:00,
2013-02-06 16:11:00,44.0,31.0,-100.00,South,190,14.0,20.0,58,0.00,,,-99.99,,2013-02-06 22:11:00,
2013-02-06 16:21:00,44.0,31.0,-100.00,SW,230,11.0,16.0,58,0.00,,,-99.99,,2013-02-06 22:21:00,
2013-02-06 16:31:00,44.0,30.0,-100.00,WSW,245,7.0,12.0,58,0.00,,,-99.99,,2013-02-06 22:31:00,
2013-02-06 16:41:00,44.0,30.0,-100.00,WSW,245,7.0,12.0,58,0.00,,,-99.99,,2013-02-06 22:41:00,
2013-02-06 16:51:00,43.0,31.0,-100.00,SW,235,4.0,7.0,60,0.00,,,-99.99,,2013-02-06 22:51:00,
2013-02-06 17:01:00,43.0,31.0,-100.00,SW,235,4.0,7.0,60,0.00,,,-99.99,,2013-02-06 23:01:00,
2013-02-06 17:11:00,43.0,31.0,-100.00,WSW,255,3.0,5.0,61,0.00,,,-99.99,,2013-02-06 23:11:00,
2013-02-06 17:21:00,43.0,31.0,-100.00,WSW,245,3.0,4.0,61,0.00,,,-99.99,,2013-02-06 23:21:00,
2013-02-06 17:32:00,42.0,31.0,-100.00,WSW,255,2.0,4.0,63,0.00,,,-99.99,,2013-02-06 23:32:00,
2013-02-06 17:41:00,42.0,31.0,-100.00,WSW,255,2.0,4.0,63,0.00,,,-99.99,,2013-02-06 23:41:00,
2013-02-06 17:52:00,41.0,30.0,-100.00,SW,215,5.0,6.0,64,0.00,,,-99.99,,2013-02-06 23:52:00,
2013-02-06 18:01:00,41.0,30.0,-100.00,SW,215,5.0,6.0,64,0.00,,,-99.99,,2013-02-07 00:01:00,
2013-02-06 18:11:00,40.0,29.0,-100.00,SW,215,4.0,6.0,66,0.00,,,-99.99,,2013-02-07 00:11:00,
2013-02-06 18:21:00,39.0,30.0,-100.00,South,180,4.0,4.0,68,0.00,,,-99.99,,2013-02-07 00:21:00,
2013-02-06 18:31:00,38.0,30.0,-100.00,South,180,7.0,8.0,71,0.00,,,-99.99,,2013-02-07 00:31:00,
2013-02-06 18:41:00,38.0,30.0,-100.00,South,180,7.0,8.0,71,0.00,,,-99.99,,2013-02-07 00:41:00,
2013-02-06 18:51:00,39.0,31.0,-100.00,South,185,9.0,10.0,74,0.00,,,-99.99,,2013-02-07 00:51:00,
2013-02-06 19:01:00,39.0,31.0,-100.00,South,185,9.0,10.0,74,0.00,,,-99.99,,2013-02-07 01:01:00,
2013-02-06 19:11:00,39.0,32.0,-100.00,South,185,9.0,11.0,74,0.00,,,-99.99,,2013-02-07 01:11:00,
2013-02-06 19:21:00,40.0,32.0,-100.00,South,185,8.0,11.0,74,0.00,,,-99.99,,2013-02-07 01:21:00,
2013-02-06 19:31:00,38.0,31.0,-100.00,South,180,7.0,9.0,74,0.00,,,-99.99,,2013-02-07 01:31:00,
2013-02-06 19:41:00,38.0,31.0,-100.00,South,180,7.0,9.0,74,0.00,,,-99.99,,2013-02-07 01:41:00,
2013-02-06 19:52:00,39.0,31.0,-100.00,South,190,7.0,9.0,75,0.00,,,-99.99,,2013-02-07 01:52:00,
2013-02-06 20:01:00,39.0,31.0,-100.00,South,190,7.0,9.0,75,0.00,,,-99.99,,2013-02-07 02:01:00,
2013-02-06 20:11:00,39.0,32.0,-100.00,SSW,195,7.0,9.0,75,0.00,,,-99.99,,2013-02-07 02:11:00,
2013-02-06 20:21:00,39.0,32.0,-100.00,South,190,7.0,10.0,75,0.00,,,-99.99,,2013-02-07 02:21:00,
2013-02-06 20:31:00,37.0,30.0,-100.00,South,175,7.0,9.0,76,0.00,,,-99.99,,2013-02-07 02:31:00,
2013-02-06 20:41:00,37.0,30.0,-100.00,South,175,7.0,9.0,76,0.00,,,-99.99,,2013-02-07 02:41:00,
2013-02-06 20:51:00,37.0,30.0,-100.00,South,175,7.0,9.0,76,0.00,,,-99.99,,2013-02-07 02:51:00,
2013-02-06 21:02:00,37.0,31.0,-100.00,SSE,165,7.0,8.0,78,0.00,,,-99.99,,2013-02-07 03:02:00,
2013-02-06 21:11:00,36.0,31.0,-100.00,SSE,165,8.0,9.0,79,0.00,,,-99.99,,2013-02-07 03:11:00,
2013-02-06 21:21:00,37.0,31.0,-100.00,South,170,9.0,10.0,80,0.00,,,-99.99,,2013-02-07 03:21:00,
2013-02-06 21:31:00,37.0,31.0,-100.00,South,175,9.0,10.0,80,0.00,,,-99.99,,2013-02-07 03:31:00,
2013-02-06 21:41:00,37.0,31.0,-100.00,South,175,9.0,10.0,80,0.00,,,-99.99,,2013-02-07 03:41:00,
2013-02-06 21:51:00,37.0,31.0,-100.00,South,175,6.0,7.0,81,0.00,,,-99.99,,2013-02-07 03:51:00,
2013-02-06 22:01:00,37.0,31.0,-100.00,South,175,6.0,7.0,81,0.00,,,-99.99,,2013-02-07 04:01:00,
2013-02-06 22:11:00,37.0,32.0,-100.00,South,180,6.0,6.0,81,0.00,,,-99.99,,2013-02-07 04:11:00,
2013-02-06 22:22:00,37.0,32.0,-100.00,SSW,200,4.0,7.0,81,0.00,,,-99.99,,2013-02-07 04:22:00,
2013-02-06 22:31:00,37.0,32.0,-100.00,SSW,205,1.0,2.0,82,0.00,,,-99.99,,2013-02-07 04:31:00,
2013-02-06 22:41:00,37.0,32.0,-100.00,SSW,205,1.0,2.0,82,0.00,,,-99.99,,2013-02-07 04:41:00,
2013-02-06 22:52:00,37.0,32.0,-100.00,SW,230,2.0,3.0,82,0.00,,,-99.99,,2013-02-07 04:52:00,
2013-02-06 23:02:00,37.0,32.0,-100.00,SW,230,2.0,3.0,82,0.00,,,-99.99,,2013-02-07 05:02:00,
2013-02-06 23:11:00,36.0,32.0,-100.00,NW,325,1.0,2.0,82,0.00,,,-99.99,,2013-02-07 05:11:00,
2013-02-06 23:21:00,36.0,32.0,-100.00,NNW,330,4.0,4.0,82,0.00,,,-99.99,,2013-02-07 05:21:00,
2013-02-06 23:32:00,36.0,31.0,-100.00,NNW,345,4.0,5.0,82,0.00,,,-99.99,,2013-02-07 05:32:00,
2013-02-06 23:42:00,36.0,31.0,-100.00,NNW,345,4.0,5.0,82,0.00,,,-99.99,,2013-02-07 05:42:00,
2013-02-06 23:52:00,35.0,31.0,-100.00,North,355,2.0,4.0,82,0.00,,,-99.99,,2013-02-07 05:52:00,